createdAt,value
2023-02-08T00:01:15.279Z,7.85
2023-02-08T00:07:17.805Z,8.40
2023-02-08T00:13:19.982Z,9.55
2023-02-08T00:19:22.408Z,9.25
2023-02-08T00:25:24.853Z,8.18
2023-02-08T00:37:29.955Z,7.28
2023-02-08T00:49:34.893Z,7.43
2023-02-08T00:55:37.358Z,8.15
2023-02-08T01:01:41.007Z,7.55
2023-02-08T01:07:43.350Z,10.13
2023-02-08T01:19:47.891Z,9.27
2023-02-08T01:31:53.131Z,8.33
2023-02-08T01:37:56.195Z,8.38
2023-02-08T01:50:03.458Z,7.20
2023-02-08T01:56:13.065Z,9.55
2023-02-08T02:02:20.076Z,6.68
2023-02-08T02:08:22.783Z,7.05
2023-02-08T02:14:25.237Z,7.53
2023-02-08T02:20:53.564Z,7.55
2023-02-08T02:27:19.964Z,8.32
2023-02-08T02:33:46.643Z,5.75
2023-02-08T02:40:25.907Z,6.05
2023-02-08T02:46:40.728Z,6.97
2023-02-08T02:53:10.540Z,9.82
2023-02-08T02:59:15.439Z,9.02
2023-02-08T03:05:17.608Z,6.80
2023-02-08T03:17:59.648Z,7.95
2023-02-08T03:24:27.109Z,8.00
2023-02-08T03:30:45.480Z,7.50
2023-02-08T03:36:59.734Z,6.35
2023-02-08T03:43:08.604Z,5.60
2023-02-08T03:49:22.489Z,7.05
2023-02-08T03:55:35.387Z,5.82
2023-02-08T04:01:44.501Z,7.40
2023-02-08T04:07:47.163Z,6.13
2023-02-08T04:13:49.509Z,5.10
2023-02-08T04:19:51.768Z,5.68
2023-02-08T04:25:54.007Z,6.40
2023-02-08T04:31:56.262Z,6.45
2023-02-08T04:44:01.019Z,6.65
2023-02-08T04:50:04.077Z,6.28
2023-02-08T04:56:06.371Z,6.43
2023-02-08T05:02:08.746Z,5.95
2023-02-08T05:14:13.186Z,5.05
2023-02-08T05:20:15.646Z,6.00
2023-02-08T05:26:18.176Z,5.53
2023-02-08T05:32:20.409Z,6.25
2023-02-08T05:44:25.306Z,5.38
2023-02-08T05:50:28.043Z,5.65
2023-02-08T05:56:30.322Z,5.22
2023-02-08T06:02:34.045Z,4.97
2023-02-08T06:08:36.594Z,6.45
2023-02-08T06:14:38.898Z,5.90
2023-02-08T06:20:41.701Z,5.47
2023-02-08T06:26:44.590Z,5.15
2023-02-08T06:32:46.852Z,7.53
2023-02-08T06:44:56.025Z,6.65
2023-02-08T06:50:58.341Z,8.07
2023-02-08T06:57:00.555Z,7.85
2023-02-08T07:03:03.065Z,6.63
2023-02-08T07:09:05.464Z,6.43
2023-02-08T07:15:07.932Z,7.47
2023-02-08T07:21:12.162Z,6.95
2023-02-08T07:27:14.595Z,7.35
2023-02-08T07:33:16.739Z,11.57
2023-02-08T07:39:18.967Z,8.05
2023-02-08T07:45:21.260Z,8.38
2023-02-08T07:51:23.644Z,5.93
2023-02-08T07:57:25.910Z,9.38
2023-02-08T08:03:28.413Z,7.93
2023-02-08T08:15:32.904Z,7.28
2023-02-08T08:21:35.499Z,9.20
2023-02-08T08:33:40.971Z,8.32
2023-02-08T08:45:45.794Z,9.48
2023-02-08T08:51:48.251Z,8.80
2023-02-08T09:03:54.905Z,7.32
2023-02-08T09:09:57.072Z,6.88
2023-02-08T09:15:59.429Z,6.88
2023-02-08T09:28:04.421Z,6.68
2023-02-08T09:34:07.995Z,7.22
2023-02-08T09:40:23.160Z,9.15
2023-02-08T09:46:28.390Z,8.40
2023-02-08T09:53:08.564Z,8.98
2023-02-08T09:59:17.768Z,9.00
2023-02-08T10:05:30.306Z,10.45
2023-02-08T10:11:41.856Z,8.80
2023-02-08T10:17:52.972Z,9.50
2023-02-08T10:24:01.469Z,9.05
2023-02-08T10:30:21.277Z,9.48
2023-02-08T10:36:32.251Z,9.88
2023-02-08T10:42:35.603Z,11.23
2023-02-08T10:48:50.492Z,13.32
2023-02-08T10:54:53.453Z,10.45
2023-02-08T11:00:57.951Z,11.52
2023-02-08T11:07:20.816Z,10.57
2023-02-08T11:13:23.241Z,10.67
2023-02-08T11:25:40.268Z,12.63
2023-02-08T11:32:15.326Z,9.70
2023-02-08T11:38:20.462Z,10.15
2023-02-08T11:44:46.777Z,11.65
2023-02-08T11:50:56.267Z,10.20
2023-02-08T11:57:13.951Z,9.63
2023-02-08T12:03:19.860Z,10.45
2023-02-08T12:09:38.213Z,10.05
2023-02-08T12:15:57.464Z,9.43
2023-02-08T12:22:06.545Z,10.00
2023-02-08T12:28:41.812Z,8.40
2023-02-08T12:34:44.273Z,9.60
2023-02-08T12:41:10.003Z,8.68
2023-02-08T12:47:27.488Z,8.25
2023-02-08T12:53:41.340Z,7.93
2023-02-08T13:00:08.115Z,9.90
2023-02-08T13:06:18.135Z,9.68
2023-02-08T13:12:29.937Z,8.65
2023-02-08T13:18:37.680Z,6.95
2023-02-08T13:24:44.272Z,7.88
2023-02-08T13:30:52.967Z,7.90
2023-02-08T13:37:13.464Z,8.32
2023-02-08T13:43:35.278Z,9.43
2023-02-08T13:49:50.395Z,8.15
2023-02-08T13:55:57.103Z,8.10
2023-02-08T14:02:21.129Z,8.88
2023-02-08T14:08:30.975Z,10.50
2023-02-08T14:14:39.585Z,7.90
2023-02-08T14:20:42.642Z,7.38
2023-02-08T14:26:45.832Z,8.25
2023-02-08T14:33:05.193Z,7.15
2023-02-08T14:39:25.337Z,6.07
2023-02-08T14:45:36.616Z,6.50
2023-02-08T14:51:43.370Z,6.07
2023-02-08T14:57:46.050Z,4.80
2023-02-08T15:03:51.177Z,9.85
2023-02-08T15:09:53.712Z,6.80
2023-02-08T15:15:58.921Z,6.72
2023-02-08T15:22:25.348Z,5.95
2023-02-08T15:28:29.707Z,6.03
2023-02-08T15:34:32.654Z,5.88
2023-02-08T15:40:35.409Z,6.00
2023-02-08T15:46:38.599Z,4.78
2023-02-08T15:52:40.851Z,5.97
2023-02-08T16:04:48.898Z,6.32
2023-02-08T16:16:58.404Z,5.00
2023-02-08T16:23:23.249Z,7.15
2023-02-08T16:29:38.512Z,6.88
2023-02-08T16:35:40.873Z,5.15
2023-02-08T16:42:14.393Z,6.38
2023-02-08T16:48:39.560Z,7.45
2023-02-08T16:54:41.861Z,9.30
2023-02-08T17:06:48.492Z,10.07
2023-02-08T17:12:50.647Z,10.43
2023-02-08T17:18:53.582Z,10.98
2023-02-08T17:24:55.890Z,13.57
2023-02-08T17:37:02.710Z,7.73
2023-02-08T17:43:06.210Z,8.32
2023-02-08T17:49:08.457Z,8.00
2023-02-08T18:01:19.553Z,7.20
2023-02-08T18:07:22.066Z,9.52
2023-02-08T18:13:24.548Z,8.68
2023-02-08T18:19:26.557Z,9.50
2023-02-08T18:25:28.973Z,10.48
2023-02-08T18:31:31.693Z,9.10
2023-02-08T18:37:35.314Z,8.57
2023-02-08T18:43:39.473Z,8.93
2023-02-08T18:49:41.805Z,9.13
2023-02-08T18:56:01.981Z,10.25
2023-02-08T19:02:05.290Z,11.00
2023-02-08T19:08:07.465Z,9.35
2023-02-08T19:20:14.253Z,9.73
2023-02-08T19:26:22.337Z,9.35
2023-02-08T19:32:24.601Z,10.73
2023-02-08T19:38:26.729Z,8.98
2023-02-08T19:50:32.841Z,8.43
2023-02-08T19:56:35.185Z,8.27
2023-02-08T20:02:38.669Z,7.97
2023-02-08T20:08:40.680Z,9.20
2023-02-08T20:14:42.733Z,8.93
2023-02-08T20:26:47.926Z,7.97
2023-02-08T20:32:50.764Z,6.80
2023-02-08T20:38:55.300Z,7.55
2023-02-08T20:44:57.453Z,7.85
2023-02-08T20:57:15.422Z,7.03
2023-02-08T21:03:17.761Z,7.30
2023-02-08T21:09:20.871Z,6.68
2023-02-08T21:15:23.192Z,9.32
2023-02-08T21:21:26.308Z,8.52
2023-02-08T21:27:29.007Z,6.90
2023-02-08T21:33:31.337Z,8.00
2023-02-08T21:39:33.519Z,9.20
2023-02-08T21:51:56.873Z,7.80
2023-02-08T21:57:58.991Z,7.38
2023-02-08T22:10:07.909Z,3.63
2023-02-08T22:16:11.108Z,8.10
2023-02-08T22:22:13.391Z,8.98
2023-02-08T22:28:15.624Z,6.80
2023-02-08T22:34:17.969Z,8.35
2023-02-08T22:40:20.620Z,9.00
2023-02-08T22:46:22.821Z,8.50
2023-02-08T22:52:26.171Z,7.15
2023-02-08T22:58:28.638Z,6.28
2023-02-08T23:04:31.414Z,8.98
2023-02-08T23:10:33.655Z,6.78
2023-02-08T23:16:36.012Z,8.23
2023-02-08T23:22:38.307Z,6.90
2023-02-08T23:28:40.469Z,6.88
2023-02-08T23:34:42.606Z,6.80
2023-02-08T23:40:45.022Z,6.18
2023-02-08T23:46:47.362Z,7.07
2023-02-08T23:52:52.492Z,6.65
2023-02-08T23:58:59.701Z,8.15
